IBB59E GCRR-GCLP
Flight info
| Callsign | IBB59E |
|---|---|
| Flight time | N/A |
| Altitude | 25000 |
| Route | LORPO |
| Aircraft | A319/M-SDE3FGHIRWY/LB1 |
Departure
| Time | 2026-05-04 17:54 |
|---|---|
| Airport | César Manrique-Lanzarote Airport (GCRR) |
Arrival
| Time | N/A |
|---|---|
| Airport | Gran Canaria Airport (GCLP) |
| Time | Latitude | Longitude | Altitude | Speed | Heading |
|---|---|---|---|---|---|
| 2026-05-04 17:35 | 28.95053 | -13.60715 | 30 ft | 0 kts | 295° |
| 2026-05-04 17:45 | 28.95049 | -13.60706 | 30 ft | 2 kts | 295° |
| 2026-05-04 17:46 | 28.95043 | -13.60691 | 30 ft | 2 kts | 295° |
| 2026-05-04 17:46 | 28.95036 | -13.60676 | 30 ft | 2 kts | 295° |
| 2026-05-04 17:46 | 28.95032 | -13.60666 | 30 ft | 2 kts | 294° |
| 2026-05-04 17:46 | 28.95030 | -13.60649 | 30 ft | 2 kts | 262° |
| 2026-05-04 17:47 | 28.95034 | -13.60633 | 30 ft | 2 kts | 236° |
| 2026-05-04 17:47 | 28.95044 | -13.60621 | 30 ft | 1 kts | 212° |
| 2026-05-04 17:47 | 28.95050 | -13.60618 | 30 ft | 1 kts | 205° |
| 2026-05-04 17:47 | 28.95052 | -13.60617 | 30 ft | 0 kts | 206° |
| 2026-05-04 17:49 | 28.95050 | -13.60618 | 30 ft | 1 kts | 206° |
| 2026-05-04 17:49 | 28.95023 | -13.60633 | 30 ft | 6 kts | 206° |
| 2026-05-04 17:50 | 28.94968 | -13.60666 | 30 ft | 11 kts | 207° |
| 2026-05-04 17:50 | 28.94903 | -13.60643 | 30 ft | 12 kts | 117° |
| 2026-05-04 17:50 | 28.94850 | -13.60569 | 30 ft | 13 kts | 169° |
| 2026-05-04 17:50 | 28.94761 | -13.60608 | 30 ft | 15 kts | 206° |
| 2026-05-04 17:51 | 28.94661 | -13.60665 | 30 ft | 17 kts | 207° |
| 2026-05-04 17:51 | 28.94551 | -13.60730 | 30 ft | 18 kts | 207° |
| 2026-05-04 17:51 | 28.94428 | -13.60799 | 30 ft | 20 kts | 207° |
| 2026-05-04 17:51 | 28.94300 | -13.60876 | 30 ft | 21 kts | 207° |
| 2026-05-04 17:52 | 28.94168 | -13.60952 | 30 ft | 21 kts | 206° |
| 2026-05-04 17:52 | 28.94036 | -13.61028 | 31 ft | 21 kts | 206° |
| 2026-05-04 17:52 | 28.93903 | -13.61105 | 31 ft | 21 kts | 207° |
| 2026-05-04 17:52 | 28.93770 | -13.61183 | 31 ft | 20 kts | 206° |
| 2026-05-04 17:53 | 28.93677 | -13.61219 | 31 ft | 9 kts | 166° |
| 2026-05-04 17:53 | 28.93634 | -13.61162 | 31 ft | 10 kts | 118° |
| 2026-05-04 17:53 | 28.93623 | -13.61072 | 31 ft | 12 kts | 62° |
| 2026-05-04 17:53 | 28.93782 | -13.60968 | 31 ft | 58 kts | 27° |
| 2026-05-04 17:54 | 28.94377 | -13.60622 | 31 ft | 130 kts | 27° |
| 2026-05-04 17:54 | 28.95311 | -13.60088 | 342 ft | 158 kts | 30° |
| 2026-05-04 17:54 | 28.96207 | -13.59470 | 1232 ft | 150 kts | 38° |
| 2026-05-04 17:54 | 28.96994 | -13.58756 | 2026 ft | 149 kts | 37° |
| 2026-05-04 17:55 | 28.97858 | -13.58018 | 2566 ft | 164 kts | 36° |
| 2026-05-04 17:55 | 28.98819 | -13.57206 | 3082 ft | 181 kts | 36° |
| 2026-05-04 17:55 | 28.99901 | -13.56358 | 3603 ft | 198 kts | 26° |
| 2026-05-04 17:55 | 29.01316 | -13.56169 | 4017 ft | 222 kts | 343° |
| 2026-05-04 17:56 | 29.02607 | -13.57217 | 4565 ft | 244 kts | 304° |
| 2026-05-04 17:56 | 29.03099 | -13.59115 | 5176 ft | 265 kts | 268° |
| 2026-05-04 17:56 | 29.02471 | -13.61097 | 6067 ft | 277 kts | 234° |
| 2026-05-04 17:56 | 29.01036 | -13.62539 | 7120 ft | 280 kts | 219° |
| 2026-05-04 17:57 | 28.99470 | -13.63825 | 8124 ft | 280 kts | 220° |
| 2026-05-04 17:57 | 28.97936 | -13.65162 | 9109 ft | 280 kts | 223° |
| 2026-05-04 17:57 | 28.96447 | -13.66559 | 10072 ft | 280 kts | 225° |
| 2026-05-04 17:57 | 28.94983 | -13.68006 | 10961 ft | 282 kts | 226° |
| 2026-05-04 17:58 | 28.93523 | -13.69501 | 11849 ft | 285 kts | 226° |
| 2026-05-04 17:58 | 28.92073 | -13.71014 | 12791 ft | 285 kts | 226° |
| 2026-05-04 17:58 | 28.90629 | -13.72537 | 13712 ft | 285 kts | 226° |
| 2026-05-04 17:58 | 28.89169 | -13.74090 | 14426 ft | 292 kts | 226° |
| 2026-05-04 17:59 | 28.87683 | -13.75675 | 15184 ft | 296 kts | 226° |
| 2026-05-04 17:59 | 28.86181 | -13.77282 | 15994 ft | 298 kts | 226° |
| 2026-05-04 17:59 | 28.83137 | -13.80540 | 17503 ft | 304 kts | 226° |
| 2026-05-04 18:00 | 28.81596 | -13.82191 | 18228 ft | 306 kts | 226° |
| 2026-05-04 18:00 | 28.80041 | -13.83856 | 18892 ft | 310 kts | 226° |
| 2026-05-04 18:00 | 28.78464 | -13.85545 | 19575 ft | 314 kts | 226° |
| 2026-05-04 18:00 | 28.76859 | -13.87265 | 20191 ft | 319 kts | 226° |
| 2026-05-04 18:01 | 28.75239 | -13.88999 | 20844 ft | 322 kts | 226° |
| 2026-05-04 18:01 | 28.73605 | -13.90748 | 21486 ft | 325 kts | 226° |
| 2026-05-04 18:01 | 28.71954 | -13.92515 | 22110 ft | 328 kts | 226° |
| 2026-05-04 18:02 | 28.68597 | -13.96104 | 23341 ft | 333 kts | 226° |
| 2026-05-04 18:02 | 28.66900 | -13.97919 | 23830 ft | 335 kts | 226° |
| 2026-05-04 18:02 | 28.65203 | -13.99732 | 24031 ft | 334 kts | 227° |
| 2026-05-04 18:02 | 28.63508 | -14.01542 | 24037 ft | 333 kts | 227° |
| 2026-05-04 18:03 | 28.61821 | -14.03342 | 24039 ft | 332 kts | 227° |
| 2026-05-04 18:03 | 28.60133 | -14.05144 | 24038 ft | 332 kts | 227° |
| 2026-05-04 18:03 | 28.58449 | -14.06942 | 24040 ft | 332 kts | 226° |
| 2026-05-04 18:03 | 28.56763 | -14.08739 | 24041 ft | 332 kts | 227° |
| 2026-05-04 18:04 | 28.55079 | -14.10535 | 24040 ft | 332 kts | 226° |
| 2026-05-04 18:04 | 28.53391 | -14.12333 | 24041 ft | 332 kts | 226° |
| 2026-05-04 18:04 | 28.50027 | -14.15915 | 24039 ft | 332 kts | 226° |
| 2026-05-04 18:05 | 28.48343 | -14.17706 | 24038 ft | 331 kts | 226° |
| 2026-05-04 18:05 | 28.46665 | -14.19489 | 24036 ft | 330 kts | 227° |
| 2026-05-04 18:05 | 28.44982 | -14.21279 | 24036 ft | 331 kts | 227° |
| 2026-05-04 18:05 | 28.43302 | -14.23064 | 24035 ft | 331 kts | 227° |
| 2026-05-04 18:06 | 28.39941 | -14.26633 | 24030 ft | 330 kts | 227° |
| 2026-05-04 18:06 | 28.38276 | -14.28400 | 23841 ft | 325 kts | 226° |
| 2026-05-04 18:06 | 28.36629 | -14.30146 | 23304 ft | 325 kts | 227° |
| 2026-05-04 18:07 | 28.34981 | -14.31894 | 22737 ft | 326 kts | 226° |
| 2026-05-04 18:07 | 28.33332 | -14.33641 | 22234 ft | 324 kts | 227° |
| 2026-05-04 18:07 | 28.31694 | -14.35376 | 21745 ft | 322 kts | 226° |
| 2026-05-04 18:07 | 28.30061 | -14.37106 | 21269 ft | 320 kts | 226° |
| 2026-05-04 18:08 | 28.28443 | -14.38819 | 20798 ft | 318 kts | 226° |
| 2026-05-04 18:08 | 28.26832 | -14.40523 | 20333 ft | 316 kts | 226° |
| 2026-05-04 18:08 | 28.25233 | -14.42213 | 19888 ft | 313 kts | 226° |
| 2026-05-04 18:08 | 28.23647 | -14.43889 | 19447 ft | 311 kts | 226° |
| 2026-05-04 18:09 | 28.20507 | -14.47206 | 18540 ft | 307 kts | 226° |
| 2026-05-04 18:09 | 28.17407 | -14.50478 | 17675 ft | 303 kts | 226° |
| 2026-05-04 18:10 | 28.15872 | -14.52095 | 17239 ft | 301 kts | 226° |
| 2026-05-04 18:10 | 28.14349 | -14.53701 | 16804 ft | 299 kts | 226° |
| 2026-05-04 18:10 | 28.12832 | -14.55299 | 16341 ft | 298 kts | 226° |
| 2026-05-04 18:10 | 28.11316 | -14.56897 | 15890 ft | 297 kts | 226° |
| 2026-05-04 18:11 | 28.09807 | -14.58485 | 15468 ft | 296 kts | 226° |
| 2026-05-04 18:11 | 28.08308 | -14.60063 | 15039 ft | 294 kts | 226° |